createdAt,value
2018-11-14T00:00:17.216Z,10.00
2018-11-14T00:01:17.234Z,10.30
2018-11-14T00:02:17.257Z,10.10
2018-11-14T00:03:17.277Z,10.40
2018-11-14T00:04:17.288Z,9.90
2018-11-14T00:05:17.308Z,10.70
2018-11-14T00:06:17.323Z,10.10
2018-11-14T00:07:17.348Z,10.70
2018-11-14T00:08:17.360Z,10.40
2018-11-14T00:09:17.373Z,10.40
2018-11-14T00:10:17.825Z,10.70
2018-11-14T00:11:17.416Z,10.80
2018-11-14T00:12:17.432Z,10.60
2018-11-14T00:13:17.440Z,11.00
2018-11-14T00:14:17.460Z,10.90
2018-11-14T00:15:17.483Z,11.00
2018-11-14T00:16:17.496Z,11.00
2018-11-14T00:17:17.513Z,11.00
2018-11-14T00:18:17.533Z,10.80
2018-11-14T00:19:17.567Z,10.80
2018-11-14T00:20:17.587Z,11.00
2018-11-14T00:21:17.602Z,11.00
2018-11-14T00:22:17.601Z,11.30
2018-11-14T00:23:17.641Z,10.90
2018-11-14T00:24:17.643Z,11.20
2018-11-14T00:25:17.661Z,10.90
2018-11-14T00:26:17.677Z,11.30
2018-11-14T00:27:17.693Z,11.20
2018-11-14T00:28:17.709Z,11.50
2018-11-14T00:29:17.759Z,11.20
2018-11-14T00:30:17.948Z,10.90
2018-11-14T00:31:17.765Z,10.70
2018-11-14T00:32:17.782Z,11.30
2018-11-14T00:33:17.800Z,11.40
2018-11-14T00:34:17.838Z,11.30
2018-11-14T00:35:17.841Z,11.00
2018-11-14T00:36:17.852Z,11.10
2018-11-14T00:37:17.867Z,11.40
2018-11-14T00:38:17.883Z,11.70
2018-11-14T00:39:17.906Z,11.30
2018-11-14T00:40:17.924Z,11.50
2018-11-14T00:41:17.945Z,11.40
2018-11-14T00:42:17.952Z,11.50
2018-11-14T00:43:17.980Z,11.40
2018-11-14T00:44:17.995Z,11.20
2018-11-14T00:45:18.019Z,12.20
2018-11-14T00:46:18.029Z,11.00
2018-11-14T00:47:18.044Z,11.60
2018-11-14T00:48:18.061Z,11.80
2018-11-14T00:49:18.080Z,12.10
2018-11-14T00:50:18.106Z,12.40
2018-11-14T00:51:18.121Z,11.30
2018-11-14T00:52:18.132Z,12.30
2018-11-14T00:53:18.153Z,12.50
2018-11-14T00:54:18.172Z,12.40
2018-11-14T00:55:18.188Z,12.10
2018-11-14T00:56:18.207Z,12.70
2018-11-14T00:57:18.220Z,12.70
2018-11-14T00:58:18.236Z,12.10
2018-11-14T00:59:18.256Z,13.10
2018-11-14T01:00:18.268Z,12.50
2018-11-14T01:01:18.294Z,13.00
2018-11-14T01:02:18.303Z,13.10
2018-11-14T01:03:18.365Z,12.50
2018-11-14T01:04:18.344Z,12.70
2018-11-14T01:05:18.371Z,12.80
2018-11-14T01:06:18.380Z,13.50
2018-11-14T01:07:18.396Z,13.20
2018-11-14T01:08:18.412Z,13.50
2018-11-14T01:09:18.728Z,13.10
2018-11-14T01:10:18.447Z,12.60
2018-11-14T01:11:18.473Z,13.20
2018-11-14T01:12:18.479Z,13.30
2018-11-14T01:13:18.601Z,13.50
2018-11-14T01:14:18.519Z,13.20
2018-11-14T01:15:18.585Z,13.50
2018-11-14T01:16:18.553Z,13.50
2018-11-14T01:17:18.666Z,13.50
2018-11-14T01:18:18.588Z,13.80
2018-11-14T01:19:18.615Z,13.00
2018-11-14T01:20:18.624Z,13.30
2018-11-14T01:21:18.640Z,13.30
2018-11-14T01:22:18.656Z,13.80
2018-11-14T01:23:18.679Z,13.30
2018-11-14T01:24:18.696Z,13.60
2018-11-14T01:25:18.710Z,13.40
2018-11-14T01:26:18.728Z,13.20
2018-11-14T01:27:18.748Z,13.60
2018-11-14T01:28:18.760Z,12.90
2018-11-14T01:29:18.780Z,13.70
2018-11-14T01:30:18.793Z,13.40
2018-11-14T01:31:18.829Z,12.80
2018-11-14T01:32:18.837Z,13.70
2018-11-14T01:33:18.852Z,13.10
2018-11-14T01:34:18.872Z,13.40
2018-11-14T01:35:18.888Z,12.80
2018-11-14T01:36:18.904Z,13.30
2018-11-14T01:37:18.925Z,13.40
2018-11-14T01:38:18.937Z,13.70
2018-11-14T01:39:18.956Z,12.90
2018-11-14T01:40:18.972Z,13.60
2018-11-14T01:41:18.988Z,13.60
2018-11-14T01:42:19.006Z,13.40
2018-11-14T01:43:19.028Z,14.00
2018-11-14T01:44:19.043Z,13.40
2018-11-14T01:45:19.131Z,14.10
2018-11-14T01:46:19.080Z,13.00
2018-11-14T01:47:19.095Z,13.40
2018-11-14T01:48:19.116Z,13.20
2018-11-14T01:49:19.128Z,14.30
2018-11-14T01:50:19.152Z,13.50
2018-11-14T01:51:19.175Z,14.20
2018-11-14T01:52:19.184Z,13.20
2018-11-14T01:53:19.204Z,14.40
2018-11-14T01:54:19.216Z,13.50
2018-11-14T01:55:19.236Z,13.50
2018-11-14T01:56:19.250Z,13.70
2018-11-14T01:57:19.267Z,14.70
2018-11-14T01:58:19.291Z,13.90
2018-11-14T01:59:19.308Z,14.10
2018-11-14T02:00:19.324Z,13.50
2018-11-14T02:01:19.340Z,14.10
2018-11-14T02:02:19.360Z,14.60
2018-11-14T02:03:19.380Z,13.20
2018-11-14T02:04:19.407Z,14.20
2018-11-14T02:05:19.419Z,13.90
2018-11-14T02:06:19.431Z,13.90
2018-11-14T02:07:19.447Z,13.60
2018-11-14T02:08:19.556Z,14.30
2018-11-14T02:09:19.488Z,14.00
2018-11-14T02:10:19.500Z,14.10
2018-11-14T02:11:19.552Z,14.00
2018-11-14T02:12:19.540Z,13.30
2018-11-14T02:13:19.549Z,14.40
2018-11-14T02:14:19.652Z,13.90
2018-11-14T02:15:19.591Z,13.90
2018-11-14T02:16:19.603Z,14.30
2018-11-14T02:17:19.620Z,13.40
2018-11-14T02:18:19.635Z,14.60
2018-11-14T02:19:19.655Z,14.30
2018-11-14T02:20:19.671Z,13.80
2018-11-14T02:21:19.691Z,13.80
2018-11-14T02:22:19.707Z,14.20
2018-11-14T02:23:19.734Z,14.60
2018-11-14T02:24:19.739Z,14.20
2018-11-14T02:25:19.759Z,14.70
2018-11-14T02:26:19.775Z,14.50
2018-11-14T02:27:19.796Z,14.20
2018-11-14T02:28:19.815Z,14.40
2018-11-14T02:29:19.831Z,14.60
2018-11-14T02:30:19.856Z,14.00
2018-11-14T02:31:19.940Z,14.40
2018-11-14T02:32:19.884Z,14.70
2018-11-14T02:33:19.900Z,15.20
2018-11-14T02:34:19.914Z,14.60
2018-11-14T02:35:19.946Z,15.40
2018-11-14T02:36:19.951Z,14.20
2018-11-14T02:37:20.045Z,14.00
2018-11-14T02:38:19.991Z,13.60
2018-11-14T02:39:20.014Z,14.00
2018-11-14T02:40:20.023Z,14.30
2018-11-14T02:41:20.043Z,13.90
2018-11-14T02:42:20.059Z,14.60
2018-11-14T02:43:20.097Z,13.80
2018-11-14T02:44:20.099Z,14.00
2018-11-14T02:45:20.115Z,14.10
2018-11-14T02:46:20.133Z,14.60
2018-11-14T02:47:20.143Z,14.30
2018-11-14T02:48:20.196Z,14.80
2018-11-14T02:49:20.235Z,13.40
2018-11-14T02:50:20.204Z,14.20
2018-11-14T02:51:20.210Z,15.10
2018-11-14T02:52:20.253Z,14.10
2018-11-14T02:53:20.252Z,14.30
2018-11-14T02:54:20.267Z,13.80
2018-11-14T02:55:20.286Z,13.50
2018-11-14T02:56:20.295Z,13.80
2018-11-14T02:57:20.314Z,13.60
2018-11-14T02:58:20.336Z,13.80
2018-11-14T02:59:20.351Z,14.00
2018-11-14T03:00:20.371Z,13.80
2018-11-14T03:01:20.390Z,13.70
2018-11-14T03:02:20.407Z,14.10
2018-11-14T03:03:20.427Z,13.80
2018-11-14T03:04:20.435Z,14.50
2018-11-14T03:05:20.457Z,13.90
2018-11-14T03:06:20.551Z,13.90
2018-11-14T03:07:20.490Z,13.40
2018-11-14T03:08:20.507Z,13.80
2018-11-14T03:09:20.631Z,14.60
2018-11-14T03:10:20.546Z,13.60
2018-11-14T03:11:20.557Z,14.00
2018-11-14T03:12:20.731Z,13.60
2018-11-14T03:13:20.594Z,13.70
2018-11-14T03:14:20.614Z,13.80
2018-11-14T03:15:20.632Z,13.70
2018-11-14T03:16:20.646Z,13.80
2018-11-14T03:17:20.671Z,14.20
2018-11-14T03:18:20.745Z,13.80
2018-11-14T03:19:20.700Z,13.90
2018-11-14T03:20:20.718Z,14.40
2018-11-14T03:21:20.734Z,14.10
2018-11-14T03:22:20.750Z,13.90
2018-11-14T03:23:20.822Z,13.90
2018-11-14T03:24:20.878Z,14.70
2018-11-14T03:25:20.802Z,14.00
2018-11-14T03:26:20.826Z,14.40
2018-11-14T03:27:20.838Z,14.10
2018-11-14T03:28:20.854Z,14.50
2018-11-14T03:29:20.872Z,14.50
2018-11-14T03:30:20.912Z,14.00
2018-11-14T03:31:20.903Z,14.30
2018-11-14T03:32:20.923Z,13.60
2018-11-14T03:33:20.938Z,13.80
2018-11-14T03:34:20.963Z,12.80
2018-11-14T03:35:20.975Z,13.60
2018-11-14T03:36:20.993Z,13.70
2018-11-14T03:37:21.015Z,13.10
2018-11-14T03:38:21.031Z,13.40
2018-11-14T03:39:21.046Z,13.10
2018-11-14T03:40:21.063Z,13.20
2018-11-14T03:41:21.075Z,13.20
2018-11-14T03:42:21.118Z,13.00
2018-11-14T03:43:21.115Z,12.70
2018-11-14T03:44:21.132Z,12.80
2018-11-14T03:45:21.147Z,13.00
2018-11-14T03:46:21.167Z,12.60
2018-11-14T03:47:21.199Z,12.50
2018-11-14T03:48:21.204Z,12.60
2018-11-14T03:49:21.219Z,12.90
2018-11-14T03:50:21.242Z,11.80
2018-11-14T03:51:21.255Z,12.40
2018-11-14T03:52:21.270Z,12.00
2018-11-14T03:53:21.283Z,12.40
2018-11-14T03:54:21.302Z,12.80
2018-11-14T03:55:21.318Z,12.00
2018-11-14T03:56:21.351Z,12.40
2018-11-14T03:57:21.359Z,11.60
2018-11-14T03:58:21.453Z,12.50
2018-11-14T03:59:21.391Z,11.90
2018-11-14T04:00:21.413Z,12.60
2018-11-14T04:01:21.423Z,12.40
2018-11-14T04:02:21.443Z,11.80
2018-11-14T04:03:21.460Z,12.20
2018-11-14T04:04:21.471Z,12.60
2018-11-14T04:05:21.607Z,12.20
2018-11-14T04:06:21.516Z,12.20
2018-11-14T04:07:21.592Z,12.30
2018-11-14T04:08:21.547Z,12.60
2018-11-14T04:09:21.698Z,12.30
2018-11-14T04:10:21.592Z,12.10
2018-11-14T04:11:21.625Z,12.80
2018-11-14T04:12:21.636Z,12.40
2018-11-14T04:13:21.627Z,12.50
2018-11-14T04:14:21.651Z,12.70
2018-11-14T04:15:21.667Z,11.90
2018-11-14T04:16:21.680Z,12.60
2018-11-14T04:17:21.727Z,12.50
2018-11-14T04:18:21.720Z,12.10
2018-11-14T04:19:21.736Z,12.10
2018-11-14T04:20:21.758Z,12.70
2018-11-14T04:21:21.776Z,11.90
2018-11-14T04:22:21.783Z,11.60
2018-11-14T04:23:21.803Z,11.80
2018-11-14T04:24:21.819Z,12.20
2018-11-14T04:25:21.851Z,12.20
2018-11-14T04:26:21.857Z,11.80
2018-11-14T04:27:21.871Z,12.20
2018-11-14T04:28:21.895Z,11.80
2018-11-14T04:29:21.999Z,12.00
2018-11-14T04:30:21.927Z,11.80
2018-11-14T04:31:21.941Z,11.60
2018-11-14T04:32:21.958Z,12.00
2018-11-14T04:33:21.979Z,11.80
2018-11-14T04:34:21.999Z,12.20
2018-11-14T04:35:22.067Z,12.20
2018-11-14T04:36:22.028Z,12.10
2018-11-14T04:37:22.051Z,12.20
2018-11-14T04:38:22.065Z,12.00
2018-11-14T04:39:22.076Z,11.70
2018-11-14T04:40:22.101Z,11.70
2018-11-14T04:41:22.199Z,12.50
2018-11-14T04:42:22.132Z,12.80
2018-11-14T04:43:22.144Z,11.60
2018-11-14T04:44:22.179Z,12.40
2018-11-14T04:45:22.188Z,12.20
2018-11-14T04:46:22.199Z,11.80
2018-11-14T04:47:22.255Z,11.90
2018-11-14T04:48:22.231Z,11.50
2018-11-14T04:49:22.252Z,11.90
2018-11-14T04:50:22.268Z,12.20
2018-11-14T04:51:22.288Z,12.20
2018-11-14T04:52:22.304Z,12.20
2018-11-14T04:53:22.372Z,11.40
2018-11-14T04:54:22.340Z,11.80
2018-11-14T04:55:22.358Z,11.60
2018-11-14T04:56:22.372Z,12.00
2018-11-14T04:57:22.387Z,11.80
2018-11-14T04:58:22.408Z,11.60
2018-11-14T04:59:22.428Z,11.80
2018-11-14T05:00:22.460Z,11.60
2018-11-14T05:01:22.460Z,12.20
2018-11-14T05:02:22.529Z,12.40
2018-11-14T05:03:22.496Z,12.30
2018-11-14T05:04:22.509Z,12.00
2018-11-14T05:05:22.619Z,12.00
2018-11-14T05:06:22.549Z,11.60
2018-11-14T05:07:22.559Z,11.80
2018-11-14T05:08:22.576Z,12.30
2018-11-14T05:09:22.596Z,12.10
2018-11-14T05:10:22.612Z,11.40
2018-11-14T05:11:22.636Z,11.50
2018-11-14T05:12:22.648Z,11.80
2018-11-14T05:13:22.664Z,11.60
2018-11-14T05:14:22.681Z,11.20
2018-11-14T05:15:22.704Z,11.70
2018-11-14T05:16:22.717Z,12.10
2018-11-14T05:17:22.733Z,12.10
2018-11-14T05:18:22.749Z,11.70
2018-11-14T05:19:22.764Z,11.70
2018-11-14T05:20:22.789Z,11.60
2018-11-14T05:21:22.800Z,11.30
2018-11-14T05:22:22.827Z,10.70
2018-11-14T05:23:22.836Z,11.70
2018-11-14T05:24:22.881Z,11.50
2018-11-14T05:25:22.868Z,11.30
2018-11-14T05:26:22.891Z,11.40
2018-11-14T05:27:22.909Z,11.60
2018-11-14T05:28:22.950Z,11.40
2018-11-14T05:29:22.944Z,11.80
2018-11-14T05:30:22.957Z,11.50
2018-11-14T05:31:22.973Z,11.80
2018-11-14T05:32:22.992Z,11.40
2018-11-14T05:33:23.005Z,11.30
2018-11-14T05:34:23.075Z,11.30
2018-11-14T05:35:23.044Z,11.50
2018-11-14T05:36:23.056Z,11.20
2018-11-14T05:37:23.076Z,11.00
2018-11-14T05:38:23.092Z,11.40
2018-11-14T05:39:23.110Z,10.70
2018-11-14T05:40:23.128Z,11.40
2018-11-14T05:41:23.175Z,11.00
2018-11-14T05:42:23.163Z,11.40
2018-11-14T05:43:23.177Z,11.60
2018-11-14T05:44:23.196Z,11.10
2018-11-14T05:45:23.284Z,11.20
2018-11-14T05:46:23.228Z,11.50
2018-11-14T05:47:23.248Z,11.10
2018-11-14T05:48:23.277Z,11.00
2018-11-14T05:49:23.284Z,11.30
2018-11-14T05:50:23.305Z,11.10
2018-11-14T05:51:23.320Z,11.80
2018-11-14T05:52:23.332Z,11.20
2018-11-14T05:53:23.352Z,10.40
2018-11-14T05:54:23.368Z,11.20
2018-11-14T05:55:23.387Z,10.90
2018-11-14T05:56:23.405Z,10.80
2018-11-14T05:57:23.417Z,11.20
2018-11-14T05:58:23.494Z,11.50
2018-11-14T05:59:23.455Z,10.70
2018-11-14T06:00:23.463Z,11.10
2018-11-14T06:01:23.481Z,11.10
2018-11-14T06:02:23.498Z,10.80
2018-11-14T06:03:23.517Z,10.70
2018-11-14T06:04:23.537Z,10.90
2018-11-14T06:05:23.561Z,10.80
2018-11-14T06:06:23.572Z,11.00
2018-11-14T06:07:23.717Z,11.10
2018-11-14T06:08:23.606Z,11.00
2018-11-14T06:09:23.625Z,11.00
2018-11-14T06:10:23.637Z,11.00
2018-11-14T06:11:23.656Z,11.10
2018-11-14T06:12:23.668Z,11.00
2018-11-14T06:13:23.689Z,11.10
2018-11-14T06:14:23.704Z,10.70
2018-11-14T06:15:23.827Z,10.80
2018-11-14T06:16:23.765Z,11.00
2018-11-14T06:17:23.833Z,11.10
2018-11-14T06:18:23.781Z,11.10
2018-11-14T06:19:23.798Z,11.00
2018-11-14T06:20:23.818Z,11.40
2018-11-14T06:21:23.833Z,10.80
2018-11-14T06:22:23.845Z,10.70
2018-11-14T06:23:23.910Z,11.10
2018-11-14T06:24:23.886Z,10.90
2018-11-14T06:25:23.906Z,11.10
2018-11-14T06:26:23.914Z,11.60
2018-11-14T06:27:23.930Z,11.00
2018-11-14T06:28:23.982Z,11.60
2018-11-14T06:29:23.977Z,11.10
2018-11-14T06:30:23.980Z,11.50
2018-11-14T06:31:24.002Z,11.00
2018-11-14T06:32:24.017Z,11.00
2018-11-14T06:33:24.030Z,11.60
2018-11-14T06:34:24.049Z,11.50
2018-11-14T06:35:24.071Z,11.30
2018-11-14T06:36:24.082Z,11.20
2018-11-14T06:37:24.098Z,11.20
2018-11-14T06:38:24.122Z,11.50
2018-11-14T06:39:24.134Z,11.50
2018-11-14T06:40:24.153Z,11.10
2018-11-14T06:41:24.177Z,11.40
2018-11-14T06:42:24.194Z,11.50
2018-11-14T06:43:24.214Z,11.00
2018-11-14T06:44:24.215Z,11.20
2018-11-14T06:45:24.247Z,11.30
2018-11-14T06:46:24.259Z,11.00
2018-11-14T06:47:24.271Z,11.10
2018-11-14T06:48:24.294Z,11.20
2018-11-14T06:49:24.305Z,11.40
2018-11-14T06:50:24.422Z,11.70
2018-11-14T06:51:24.347Z,11.40
2018-11-14T06:52:24.427Z,11.50
2018-11-14T06:53:24.374Z,11.40
2018-11-14T06:54:24.395Z,11.30
2018-11-14T06:55:24.435Z,11.60
2018-11-14T06:56:24.423Z,11.20
2018-11-14T06:57:24.443Z,11.20
2018-11-14T06:58:24.503Z,11.80
2018-11-14T06:59:24.575Z,11.30
2018-11-14T07:00:24.494Z,11.10
2018-11-14T07:01:24.511Z,11.20
2018-11-14T07:02:27.320Z,11.60
2018-11-14T07:03:24.583Z,11.50
2018-11-14T07:04:24.615Z,11.60
2018-11-14T07:05:24.600Z,11.40
2018-11-14T07:06:24.595Z,11.50
2018-11-14T07:07:24.612Z,11.40
2018-11-14T07:08:24.632Z,11.70
2018-11-14T07:09:24.651Z,11.80
2018-11-14T07:10:24.712Z,11.40
2018-11-14T07:11:24.680Z,11.00
2018-11-14T07:12:24.697Z,11.30
2018-11-14T07:13:24.718Z,11.70
2018-11-14T07:14:24.736Z,11.10
2018-11-14T07:15:24.752Z,10.90
2018-11-14T07:16:24.811Z,11.50
2018-11-14T07:17:24.787Z,11.00
2018-11-14T07:18:24.804Z,11.10
2018-11-14T07:19:24.823Z,11.20
2018-11-14T07:20:24.840Z,11.00
2018-11-14T07:21:24.856Z,10.90
2018-11-14T07:22:24.876Z,11.30
2018-11-14T07:23:24.934Z,10.80
2018-11-14T07:24:24.954Z,10.80
2018-11-14T07:25:24.923Z,10.90
2018-11-14T07:26:24.966Z,11.40
2018-11-14T07:27:24.956Z,11.20
2018-11-14T07:28:24.967Z,11.20
2018-11-14T07:29:24.985Z,11.30
2018-11-14T07:30:25.004Z,11.30
2018-11-14T07:31:25.029Z,10.70
2018-11-14T07:32:25.040Z,11.30
2018-11-14T07:33:25.061Z,10.90
2018-11-14T07:34:25.073Z,11.60
2018-11-14T07:35:25.093Z,11.20
2018-11-14T07:36:25.105Z,10.60
2018-11-14T07:37:25.132Z,11.70
2018-11-14T07:38:25.145Z,11.40
2018-11-14T07:39:25.158Z,11.20
2018-11-14T07:40:25.177Z,11.00
2018-11-14T07:41:25.197Z,11.30
2018-11-14T07:42:25.218Z,10.70
2018-11-14T07:43:25.236Z,11.40
2018-11-14T07:44:25.245Z,11.10
2018-11-14T07:45:25.270Z,11.50
2018-11-14T07:46:25.282Z,11.00
2018-11-14T07:47:25.305Z,11.60
2018-11-14T07:48:25.316Z,11.70
2018-11-14T07:49:25.341Z,11.80
2018-11-14T07:50:25.354Z,11.10
2018-11-14T07:51:25.370Z,10.40
2018-11-14T07:52:25.381Z,10.80
2018-11-14T07:53:25.397Z,10.70
2018-11-14T07:54:25.446Z,10.20
2018-11-14T07:55:25.438Z,10.70
2018-11-14T07:56:25.454Z,9.80
2018-11-14T07:57:25.466Z,10.30
2018-11-14T07:58:25.486Z,10.10
2018-11-14T07:59:25.503Z,10.30
2018-11-14T08:00:25.523Z,10.30
2018-11-14T08:01:25.552Z,9.30
2018-11-14T08:02:25.560Z,9.40
2018-11-14T08:03:25.590Z,15.70
2018-11-14T08:04:25.593Z,9.10
2018-11-14T08:05:25.617Z,9.00
2018-11-14T08:06:25.630Z,9.00
2018-11-14T08:07:25.650Z,8.70
2018-11-14T08:08:25.798Z,8.80
2018-11-14T08:09:25.692Z,8.40
2018-11-14T08:10:25.707Z,8.10
2018-11-14T08:11:25.719Z,8.50
2018-11-14T08:12:25.746Z,8.30
2018-11-14T08:13:25.760Z,8.30
2018-11-14T08:14:25.786Z,8.20
2018-11-14T08:15:25.814Z,7.90
2018-11-14T08:16:25.816Z,8.10
2018-11-14T08:17:25.838Z,7.70
2018-11-14T08:18:25.853Z,8.00
2018-11-14T08:19:25.871Z,7.80
2018-11-14T08:20:25.895Z,8.10
2018-11-14T08:21:25.943Z,7.80
2018-11-14T08:22:25.935Z,7.70
2018-11-14T08:23:25.955Z,7.60
2018-11-14T08:24:25.974Z,7.70
2018-11-14T08:25:25.996Z,7.70
2018-11-14T08:26:26.016Z,8.30
2018-11-14T08:27:26.075Z,8.20
2018-11-14T08:28:26.056Z,7.10
2018-11-14T08:29:26.070Z,7.40
2018-11-14T08:30:26.129Z,7.60
2018-11-14T08:31:26.111Z,7.70
2018-11-14T08:32:26.131Z,7.60
2018-11-14T08:33:26.179Z,7.50
2018-11-14T08:34:26.176Z,7.60
2018-11-14T08:35:26.195Z,7.20
2018-11-14T08:36:26.213Z,7.80
2018-11-14T08:37:26.235Z,7.60
2018-11-14T08:38:26.253Z,7.60
2018-11-14T08:39:26.428Z,7.40
2018-11-14T08:40:26.303Z,7.50
2018-11-14T08:41:26.319Z,7.30
2018-11-14T08:42:26.336Z,7.60
2018-11-14T08:43:26.360Z,7.30
2018-11-14T08:44:26.379Z,7.20
2018-11-14T08:45:26.399Z,7.30
2018-11-14T08:46:26.431Z,7.40
2018-11-14T08:47:26.441Z,7.00
2018-11-14T08:48:26.456Z,7.30
2018-11-14T08:49:26.488Z,7.50
2018-11-14T08:50:26.612Z,6.90
2018-11-14T08:51:26.519Z,7.30
2018-11-14T08:52:26.546Z,7.20
2018-11-14T08:53:26.568Z,7.40
2018-11-14T08:54:26.583Z,7.80
2018-11-14T08:55:26.604Z,7.10
2018-11-14T08:56:26.628Z,7.60
2018-11-14T08:57:26.684Z,7.50
2018-11-14T08:58:26.672Z,7.50
2018-11-14T08:59:26.696Z,7.50
2018-11-14T09:00:26.712Z,7.30
2018-11-14T09:01:26.737Z,7.80
2018-11-14T09:02:26.755Z,7.70
2018-11-14T09:03:26.779Z,7.80
2018-11-14T09:04:26.801Z,7.80
2018-11-14T09:05:26.816Z,7.70
2018-11-14T09:06:26.973Z,7.30
2018-11-14T09:07:26.860Z,7.80
2018-11-14T09:08:26.891Z,7.40
2018-11-14T09:09:26.908Z,7.80
2018-11-14T09:10:26.919Z,7.50
2018-11-14T09:11:27.128Z,7.30
2018-11-14T09:12:27.017Z,7.60
2018-11-14T09:13:26.991Z,7.40
2018-11-14T09:14:27.060Z,7.50
2018-11-14T09:15:27.035Z,7.50
2018-11-14T09:16:27.050Z,7.50
2018-11-14T09:17:27.071Z,7.30
2018-11-14T09:18:27.119Z,7.50
2018-11-14T09:19:27.124Z,7.20
2018-11-14T09:20:27.143Z,7.60
2018-11-14T09:21:27.168Z,7.70
2018-11-14T09:22:27.179Z,7.50
2018-11-14T09:23:27.209Z,7.20
2018-11-14T09:24:27.229Z,7.80
2018-11-14T09:25:27.300Z,7.20
2018-11-14T09:26:27.276Z,7.70
2018-11-14T09:27:27.293Z,7.90
2018-11-14T09:28:27.313Z,7.10
2018-11-14T09:29:27.337Z,7.20
2018-11-14T09:30:27.357Z,6.90
2018-11-14T09:31:27.453Z,7.00
2018-11-14T09:32:27.401Z,7.40
2018-11-14T09:33:27.422Z,6.80
2018-11-14T09:34:27.438Z,7.40
2018-11-14T09:35:27.473Z,7.10
2018-11-14T09:36:27.491Z,7.20
2018-11-14T09:37:27.553Z,6.90
2018-11-14T09:38:27.525Z,7.60
2018-11-14T09:39:27.546Z,7.20
2018-11-14T09:40:27.581Z,7.20
2018-11-14T09:41:27.616Z,7.40
2018-11-14T09:42:27.611Z,7.60
2018-11-14T09:43:27.635Z,7.50
2018-11-14T09:44:27.660Z,7.00
2018-11-14T09:45:27.677Z,7.80
2018-11-14T09:46:27.711Z,10.80
2018-11-14T09:47:27.720Z,8.10
2018-11-14T09:48:27.818Z,7.20
2018-11-14T09:49:27.866Z,7.50
2018-11-14T09:50:27.781Z,7.50
2018-11-14T09:51:27.842Z,7.10
2018-11-14T09:52:27.828Z,7.20
2018-11-14T09:53:27.948Z,7.50
2018-11-14T09:54:27.874Z,7.50
2018-11-14T09:55:27.893Z,7.50
2018-11-14T09:56:27.974Z,6.80
2018-11-14T09:57:27.940Z,7.00
2018-11-14T09:58:27.956Z,7.10
2018-11-14T09:59:27.978Z,7.50
2018-11-14T10:00:28.019Z,7.40
2018-11-14T10:01:28.026Z,7.10
2018-11-14T10:02:28.045Z,7.10
2018-11-14T10:03:28.079Z,7.30
2018-11-14T10:04:28.090Z,6.80
2018-11-14T10:05:28.157Z,7.20
2018-11-14T10:06:28.155Z,7.30
2018-11-14T10:07:28.158Z,7.00
2018-11-14T10:08:28.175Z,7.30
2018-11-14T10:09:28.198Z,6.90
2018-11-14T10:10:28.225Z,7.60
2018-11-14T10:11:28.391Z,7.60
2018-11-14T10:12:28.331Z,7.30
2018-11-14T10:13:28.283Z,7.60
2018-11-14T10:14:28.305Z,7.30
2018-11-14T10:15:28.361Z,8.90
2018-11-14T10:16:28.350Z,7.50
2018-11-14T10:17:28.365Z,6.80
2018-11-14T10:18:28.511Z,7.70
2018-11-14T10:19:28.424Z,7.70
2018-11-14T10:20:28.439Z,7.60
2018-11-14T10:21:28.511Z,7.60
2018-11-14T10:22:28.486Z,7.70
2018-11-14T10:23:28.503Z,7.50
2018-11-14T10:24:28.531Z,7.20
2018-11-14T10:25:28.552Z,7.30
2018-11-14T10:26:28.568Z,7.20
2018-11-14T10:27:28.606Z,7.50
2018-11-14T10:28:28.615Z,7.50
2018-11-14T10:29:28.637Z,7.10
2018-11-14T10:30:28.797Z,7.80
2018-11-14T10:31:28.704Z,7.50
2018-11-14T10:32:28.700Z,7.50
2018-11-14T10:33:28.724Z,7.20
2018-11-14T10:34:28.749Z,6.90
2018-11-14T10:36:28.789Z,7.50
2018-11-14T10:37:28.812Z,7.00
2018-11-14T10:38:28.832Z,7.30
2018-11-14T10:39:28.856Z,6.80
2018-11-14T10:40:28.876Z,7.40
2018-11-14T10:41:28.944Z,7.30
2018-11-14T10:42:28.920Z,6.90
2018-11-14T10:43:28.940Z,7.10
2018-11-14T10:44:28.973Z,7.20
2018-11-14T10:45:28.990Z,7.90
2018-11-14T10:46:29.013Z,7.70
2018-11-14T10:47:29.045Z,7.20
2018-11-14T10:48:29.052Z,7.20
2018-11-14T10:49:29.072Z,7.30
2018-11-14T10:50:29.094Z,7.30
2018-11-14T10:51:29.133Z,7.50
2018-11-14T10:52:29.150Z,7.70
2018-11-14T10:53:29.181Z,7.60
2018-11-14T10:54:29.188Z,7.60
2018-11-14T10:55:29.208Z,7.40
2018-11-14T10:56:29.231Z,7.50
2018-11-14T10:57:29.256Z,8.00
2018-11-14T10:58:29.394Z,7.70
2018-11-14T10:59:29.306Z,7.80
2018-11-14T11:00:29.325Z,7.40
2018-11-14T11:01:29.348Z,7.70
2018-11-14T11:02:29.364Z,8.00
2018-11-14T11:03:29.413Z,7.40
2018-11-14T11:04:29.411Z,7.80
2018-11-14T11:05:29.433Z,7.80
2018-11-14T11:06:29.455Z,7.60
2018-11-14T11:07:29.488Z,7.60
2018-11-14T11:08:29.534Z,7.50
2018-11-14T11:09:29.533Z,7.80
2018-11-14T11:10:29.549Z,7.40
2018-11-14T11:11:29.575Z,8.00
2018-11-14T11:12:29.597Z,7.70
2018-11-14T11:13:29.618Z,7.80
2018-11-14T11:14:29.632Z,7.20
2018-11-14T11:15:29.691Z,7.80
2018-11-14T11:16:29.677Z,8.10
2018-11-14T11:17:29.705Z,8.00
2018-11-14T11:18:29.725Z,7.90
2018-11-14T11:19:29.753Z,7.90
2018-11-14T11:20:29.773Z,8.00
2018-11-14T11:21:29.831Z,7.90
2018-11-14T11:22:29.814Z,7.60
2018-11-14T11:23:29.961Z,7.50
2018-11-14T11:24:29.860Z,8.60
2018-11-14T11:25:29.887Z,8.20
2018-11-14T11:26:29.906Z,7.90
2018-11-14T11:27:29.959Z,7.60
2018-11-14T11:29:29.974Z,7.70
2018-11-14T11:30:29.997Z,7.40
2018-11-14T11:31:30.030Z,7.70
2018-11-14T11:32:30.045Z,7.70
2018-11-14T11:33:30.138Z,7.80
2018-11-14T11:34:30.086Z,7.60
2018-11-14T11:35:30.105Z,7.30
2018-11-14T11:36:30.130Z,7.40
2018-11-14T11:37:30.149Z,7.50
2018-11-14T11:38:30.178Z,8.20
2018-11-14T11:39:30.204Z,7.90
2018-11-14T11:40:30.219Z,7.80
2018-11-14T11:41:30.241Z,8.10
2018-11-14T11:42:30.261Z,7.70
2018-11-14T11:43:30.284Z,8.30
2018-11-14T11:44:30.319Z,8.50
2018-11-14T11:45:30.328Z,7.80
2018-11-14T11:46:30.358Z,7.80
2018-11-14T11:47:30.373Z,7.60
2018-11-14T11:48:30.394Z,8.00
2018-11-14T11:49:30.426Z,8.10
2018-11-14T11:50:30.478Z,8.00
2018-11-14T11:51:30.464Z,8.40
2018-11-14T11:52:30.493Z,7.80
2018-11-14T11:53:30.521Z,7.60
2018-11-14T11:54:30.531Z,7.40
2018-11-14T11:55:30.557Z,7.70
2018-11-14T11:56:30.580Z,8.20
2018-11-14T11:57:30.694Z,8.00
2018-11-14T11:58:30.627Z,8.10
2018-11-14T11:59:30.721Z,7.50
2018-11-14T12:00:30.903Z,8.30
2018-11-14T12:01:30.713Z,8.00
2018-11-14T12:02:30.742Z,7.90
2018-11-14T12:03:30.733Z,8.00
2018-11-14T12:04:30.754Z,8.20
2018-11-14T12:05:30.775Z,8.00
2018-11-14T12:06:30.930Z,8.20
2018-11-14T12:07:30.823Z,8.40
2018-11-14T12:08:30.865Z,7.70
2018-11-14T12:09:30.863Z,7.70
2018-11-14T12:10:30.893Z,7.30
2018-11-14T12:11:30.914Z,6.90
2018-11-14T12:12:30.937Z,7.40
2018-11-14T12:13:31.012Z,7.80
2018-11-14T12:14:30.983Z,7.00
2018-11-14T12:15:31.010Z,7.70
2018-11-14T12:16:31.026Z,7.80
2018-11-14T12:17:31.066Z,7.50
2018-11-14T12:18:31.071Z,7.90
2018-11-14T12:19:31.092Z,8.40
2018-11-14T12:20:31.119Z,7.10
2018-11-14T12:21:31.137Z,7.60
2018-11-14T12:22:31.170Z,7.20
2018-11-14T12:23:31.256Z,7.10
2018-11-14T12:24:31.207Z,8.10
2018-11-14T12:25:31.251Z,7.60
2018-11-14T12:26:31.247Z,7.60
2018-11-14T12:27:31.320Z,7.40
2018-11-14T12:28:31.312Z,7.40
2018-11-14T12:29:31.313Z,7.90
2018-11-14T12:30:31.434Z,7.70
2018-11-14T12:31:31.363Z,7.90
2018-11-14T12:32:31.383Z,7.90
2018-11-14T12:33:31.407Z,7.90
2018-11-14T12:34:31.480Z,7.20
2018-11-14T12:35:31.473Z,7.00
2018-11-14T12:36:31.491Z,7.20
2018-11-14T12:37:31.499Z,7.60
2018-11-14T12:38:31.538Z,7.00
2018-11-14T12:39:31.543Z,7.70
2018-11-14T12:40:31.562Z,7.50
2018-11-14T12:41:31.592Z,6.90
2018-11-14T12:42:31.611Z,7.20
2018-11-14T12:43:31.634Z,7.40
2018-11-14T12:44:31.660Z,6.90
2018-11-14T12:45:31.682Z,7.60
2018-11-14T12:46:31.700Z,7.00
2018-11-14T12:47:31.730Z,7.30
2018-11-14T12:48:31.751Z,6.90
2018-11-14T12:49:31.771Z,7.10
2018-11-14T12:50:31.788Z,6.60
2018-11-14T12:51:31.819Z,6.70
2018-11-14T12:52:31.891Z,6.60
2018-11-14T12:53:31.861Z,7.50
2018-11-14T12:54:31.879Z,7.70
2018-11-14T12:55:31.906Z,8.20
2018-11-14T12:56:31.930Z,7.60
2018-11-14T12:57:31.963Z,7.90
2018-11-14T12:58:31.969Z,7.10
2018-11-14T12:59:32.031Z,7.40
2018-11-14T13:00:32.025Z,7.40
2018-11-14T13:01:32.041Z,7.60
2018-11-14T13:02:32.066Z,7.20
2018-11-14T13:03:32.091Z,8.20
2018-11-14T13:04:32.115Z,7.70